Time;durP1;ratioP1;P1;durP2;ratioP2;P2;SDS_P1;SDS_P2;PMS_P1;PMS_P2;Temp;Humidity;BMP_temperature;BMP_pressure;BME280_temperature;BME280_humidity;BME280_pressure;Samples;Min_cycle;Max_cycle;Signal;HPM_P1;HPM_P2
2021/12/10 00:02:09;;;;;;;14.52;7.90;;;;;;;0.20;97.61;94966.72;5003851;28;20319;-72
2021/12/10 00:04:36;;;;;;;10.10;4.72;;;;;;;0.15;96.80;94962.13;5004272;28;20461;-72
2021/12/10 00:07:11;;;;;;;15.15;5.25;;;;;;;0.15;97.10;94964.75;4987379;28;20067;-71
2021/12/10 00:09:41;;;;;;;10.38;4.25;;;;;;;0.12;97.14;94957.31;5004050;28;20046;-72
2021/12/10 00:12:21;;;;;;;8.93;4.80;;;;;;;0.13;97.21;94950.22;5003410;28;20305;-72
2021/12/10 00:14:47;;;;;;;10.60;5.18;;;;;;;0.15;97.45;94942.91;5004779;28;20041;-72
2021/12/10 00:17:14;;;;;;;9.90;4.20;;;;;;;0.13;97.13;94945.75;5003678;28;20034;-75
2021/12/10 00:19:48;;;;;;;13.02;5.60;;;;;;;0.15;97.71;94938.44;5003842;28;20111;-72
2021/12/10 00:22:38;;;;;;;6.68;3.85;;;;;;;0.08;97.58;94935.09;5003158;28;20497;-72
2021/12/10 00:25:12;;;;;;;15.55;5.97;;;;;;;-0.02;97.34;94924.28;4987494;28;20161;-72
2021/12/10 00:27:38;;;;;;;10.57;4.13;;;;;;;0.08;97.65;94934.28;5004141;28;20042;-72
2021/12/10 00:30:18;;;;;;;10.55;5.18;;;;;;;0.06;98.07;94929.25;5002728;28;20122;-72
2021/12/10 00:33:12;;;;;;;18.77;6.93;;;;;;;0.06;98.11;94925.81;5004434;28;20042;-71
2021/12/10 00:35:39;;;;;;;15.93;7.30;;;;;;;0.07;98.63;94919.53;5004853;28;20520;-72
2021/12/10 00:38:05;;;;;;;13.85;6.28;;;;;;;0.07;98.13;94927.41;5001702;28;20042;-72
2021/12/10 00:40:31;;;;;;;7.30;3.80;;;;;;;0.02;98.13;94920.19;5004341;28;20072;-72
2021/12/10 00:42:57;;;;;;;13.00;6.15;;;;;;;0.03;98.71;94921.00;5003927;28;20037;-72
2021/12/10 00:45:24;;;;;;;14.15;6.28;;;;;;;0.05;98.68;94917.13;4987053;28;20080;-72
2021/12/10 00:47:50;;;;;;;11.75;5.60;;;;;;;-0.06;98.84;94908.16;5001179;28;20033;-71
2021/12/10 00:50:21;;;;;;;10.55;5.85;;;;;;;-0.07;98.30;94908.38;4985808;28;20033;-71
2021/12/10 00:52:47;;;;;;;10.82;5.43;;;;;;;-0.05;98.46;94898.44;5004186;28;20088;-71
2021/12/10 00:55:13;;;;;;;12.75;6.15;;;;;;;-0.05;98.15;94898.44;5008466;28;20048;-70
2021/12/10 00:57:39;;;;;;;9.45;5.07;;;;;;;-0.06;98.18;94897.63;5007751;28;20048;-71
2021/12/10 01:00:12;;;;;;;6.03;2.70;;;;;;;-0.03;98.12;94893.75;5006757;28;20038;-72
2021/12/10 01:02:37;;;;;;;9.43;3.85;;;;;;;-0.01;97.95;94895.13;5007016;28;20344;-71
2021/12/10 01:05:05;;;;;;;8.82;4.05;;;;;;;0.03;97.23;94889.44;5006762;28;20026;-71
2021/12/10 01:07:34;;;;;;;12.20;3.72;;;;;;;0.01;96.98;94878.34;5006084;28;20444;-71
2021/12/10 01:10:05;;;;;;;10.52;4.35;;;;;;;0.07;96.70;94882.69;5007514;28;20477;-73
2021/12/10 01:12:38;;;;;;;15.10;5.00;;;;;;;0.03;96.38;94873.66;5008932;28;20034;-70
2021/12/10 01:28:36;;;;;;;7.93;4.15;;;;;;;-0.08;97.17;94839.19;5006485;28;20142;-71
2021/12/10 01:31:03;;;;;;;13.30;6.10;;;;;;;-0.06;97.53;94831.88;5006434;28;20105;-71
2021/12/10 01:33:28;;;;;;;23.50;7.47;;;;;;;-0.08;98.08;94825.22;5006362;28;20473;-73
2021/12/10 01:35:56;;;;;;;12.63;5.30;;;;;;;-0.21;98.58;94818.31;5005845;28;20045;-72
2021/12/10 01:38:23;;;;;;;11.07;6.00;;;;;;;-0.15;99.13;94825.34;5007571;28;20042;-71
2021/12/10 01:40:55;;;;;;;8.95;3.70;;;;;;;-0.24;98.49;94813.47;5007134;28;20044;-71
2021/12/10 01:43:24;;;;;;;9.55;4.78;;;;;;;-0.26;98.42;94805.03;5007956;28;20426;-71
2021/12/10 01:46:06;;;;;;;14.10;5.28;;;;;;;-0.21;99.11;94810.44;5006236;28;20477;-74
2021/12/10 01:48:51;;;;;;;;;;;;;;;-0.21;98.95;94807.00;5007827;28;20038;-71
2021/12/10 01:51:22;;;;;;;9.70;3.95;;;;;;;-0.15;98.28;94808.75;5005028;28;20002;-71
2021/12/10 01:53:51;;;;;;;11.32;4.30;;;;;;;-0.13;98.14;94809.31;5006652;28;20052;-74
2021/12/10 01:56:23;;;;;;;9.02;3.20;;;;;;;-0.14;98.02;94789.31;5006778;28;20030;-71
2021/12/10 01:58:50;;;;;;;9.27;4.55;;;;;;;-0.13;97.95;94785.66;5008616;28;20037;-71
2021/12/10 02:01:42;;;;;;;8.63;3.47;;;;;;;-0.24;99.13;94784.56;5006377;28;20447;-71
2021/12/10 02:04:11;;;;;;;6.70;4.03;;;;;;;-0.23;98.54;94788.00;5005657;28;20049;-71
2021/12/10 02:06:38;;;;;;;8.38;4.85;;;;;;;-0.23;98.92;94785.38;5005402;28;20116;-71
2021/12/10 02:09:05;;;;;;;5.75;2.50;;;;;;;-0.29;98.80;94779.19;5005137;28;20056;-71
2021/12/10 02:11:30;;;;;;;8.70;3.88;;;;;;;-0.21;98.16;94778.09;5006396;28;20453;-71
2021/12/10 02:13:56;;;;;;;6.90;3.50;;;;;;;-0.24;98.51;94770.63;5005601;28;20041;-71
2021/12/10 02:16:22;;;;;;;4.75;2.42;;;;;;;-0.31;98.47;94771.53;5005179;28;20041;-72
2021/12/10 02:18:49;;;;;;;5.65;2.80;;;;;;;-0.34;98.25;94769.31;5005998;28;20539;-70
2021/12/10 02:21:20;;;;;;;4.88;2.13;;;;;;;-0.33;97.74;94768.28;5005757;28;20344;-70
2021/12/10 02:23:57;;;;;;;6.35;2.70;;;;;;;-0.31;97.68;94768.91;5005665;28;20478;-71
2021/12/10 02:26:27;;;;;;;4.28;2.03;;;;;;;-0.33;97.64;94765.66;5006626;28;20141;-71
2021/12/10 02:28:54;;;;;;;8.20;3.30;;;;;;;-0.29;97.23;94745.00;5005890;28;20041;-73
2021/12/10 02:31:20;;;;;;;5.90;3.13;;;;;;;-0.26;96.91;94735.88;5004157;28;20092;-70
2021/12/10 02:33:46;;;;;;;6.70;2.67;;;;;;;-0.35;96.76;94728.31;5006947;28;20046;-71
2021/12/10 02:36:12;;;;;;;6.03;1.77;;;;;;;-0.38;96.54;94723.50;5004643;28;20040;-71
2021/12/10 02:38:40;;;;;;;6.38;2.47;;;;;;;-0.37;96.57;94722.47;5005191;28;20042;-71
2021/12/10 02:41:06;;;;;;;9.45;2.65;;;;;;;-0.40;96.18;94725.53;5005300;28;20078;-71
2021/12/10 02:43:32;;;;;;;5.65;2.28;;;;;;;-0.41;95.97;94723.94;5006289;28;20088;-71
2021/12/10 02:45:58;;;;;;;4.95;2.10;;;;;;;-0.46;96.29;94729.06;4988238;28;20038;-73
2021/12/10 02:48:25;;;;;;;6.20;1.85;;;;;;;-0.46;96.64;94728.25;5006482;28;20032;-71
2021/12/10 02:50:53;;;;;;;5.88;2.85;;;;;;;-0.47;96.88;94716.91;5005147;28;20037;-72
2021/12/10 02:53:24;;;;;;;10.65;3.15;;;;;;;-0.46;96.93;94713.28;5003398;28;20029;-71
2021/12/10 02:55:49;;;;;;;5.60;2.75;;;;;;;-0.48;96.74;94702.19;5005495;28;20041;-71
2021/12/10 02:58:15;;;;;;;13.73;3.38;;;;;;;-0.44;96.88;94707.81;5004707;28;20064;-71
2021/12/10 03:01:00;;;;;;;10.23;3.88;;;;;;;-0.49;96.00;94689.28;5004669;28;20286;-71
2021/12/10 03:03:26;;;;;;;14.65;3.67;;;;;;;-0.52;96.35;94690.53;4987487;28;20042;-72
2021/12/10 03:05:53;;;;;;;10.63;2.72;;;;;;;-0.67;96.54;94684.84;4987595;28;20096;-72
2021/12/10 03:08:19;;;;;;;12.60;3.10;;;;;;;-0.79;96.40;94676.91;5004325;28;20040;-71
2021/12/10 03:10:45;;;;;;;6.85;2.97;;;;;;;-0.91;97.32;94666.34;4986982;28;20192;-71
2021/12/10 03:13:12;;;;;;;13.88;3.20;;;;;;;-0.95;97.71;94664.38;5004548;28;20500;-70
2021/12/10 03:15:38;;;;;;;9.90;3.20;;;;;;;-1.00;97.88;94654.56;5002471;28;20030;-70
2021/12/10 03:18:09;;;;;;;9.13;3.25;;;;;;;-1.03;97.42;94654.97;5004154;28;20127;-71
2021/12/10 03:20:35;;;;;;;10.05;3.75;;;;;;;-1.02;97.90;94647.91;5004693;28;20384;-71
2021/12/10 03:23:03;;;;;;;9.30;2.60;;;;;;;-1.05;98.23;94643.91;5004484;28;20921;-71
2021/12/10 03:25:29;;;;;;;9.15;2.67;;;;;;;-1.09;98.15;94629.59;4986101;28;20112;-71
2021/12/10 03:27:56;;;;;;;5.75;2.97;;;;;;;-1.08;97.97;94625.19;5004692;28;20050;-71
2021/12/10 03:30:29;;;;;;;3.38;1.60;;;;;;;-1.10;98.46;94621.94;5002228;28;20124;-70
2021/12/10 03:32:56;;;;;;;7.13;2.72;;;;;;;-1.13;98.48;94605.63;5003445;28;20041;-74
2021/12/10 03:35:33;;;;;;;8.65;2.67;;;;;;;-1.14;98.26;94613.72;5005570;28;20057;-72
2021/12/10 03:38:04;;;;;;;7.20;2.13;;;;;;;-1.17;98.33;94614.97;5002941;28;20121;-71
2021/12/10 03:40:30;;;;;;;3.83;2.00;;;;;;;-1.24;98.28;94609.00;5003075;28;20045;-71
2021/12/10 03:42:58;;;;;;;12.10;2.45;;;;;;;-1.27;98.19;94600.75;5002464;28;20034;-71
2021/12/10 03:45:29;;;;;;;6.78;3.00;;;;;;;-1.33;98.28;94591.13;5003863;28;20044;-71
2021/12/10 03:47:55;;;;;;;3.67;1.52;;;;;;;-1.36;98.40;94592.38;5003086;28;20037;-71
2021/12/10 03:50:26;;;;;;;10.60;2.30;;;;;;;-1.37;98.58;94592.59;5004915;28;20034;-71
2021/12/10 03:52:52;;;;;;;2.50;1.27;;;;;;;-1.42;98.42;94591.41;5004099;28;20053;-71
2021/12/10 03:55:18;;;;;;;9.10;2.75;;;;;;;-1.44;99.30;94596.09;5003673;28;20033;-71
2021/12/10 03:57:46;;;;;;;9.88;2.35;;;;;;;-1.45;99.38;94597.13;5003467;28;20484;-72
2021/12/10 04:00:13;;;;;;;2.75;1.33;;;;;;;-1.46;99.25;94592.88;5001798;28;20045;-71
2021/12/10 04:02:39;;;;;;;9.00;2.10;;;;;;;-1.45;99.13;94580.56;5002060;28;20137;-72
2021/12/10 04:05:05;;;;;;;4.78;1.45;;;;;;;-1.34;99.17;94584.28;5003694;28;20505;-70
2021/12/10 04:07:31;;;;;;;6.97;2.42;;;;;;;-1.18;98.31;94575.78;4979727;28;20690;-72
2021/12/10 04:09:56;;;;;;;11.68;2.70;;;;;;;-1.09;98.21;94577.09;4987795;28;20031;-71
2021/12/10 04:12:22;;;;;;;8.40;2.10;;;;;;;-1.05;97.91;94573.00;5003943;28;20111;-71
2021/12/10 04:15:01;;;;;;;12.25;2.50;;;;;;;-1.04;97.39;94581.69;1023011;28;10023850;-71
2021/12/10 04:17:27;;;;;;;7.90;1.67;;;;;;;-1.02;97.51;94577.81;4657355;28;10001247;-71
2021/12/10 04:19:53;;;;;;;7.55;2.13;;;;;;;-1.05;97.31;94570.38;5003797;28;20057;-71
2021/12/10 04:22:22;;;;;;;2.45;1.17;;;;;;;-1.00;97.84;94561.84;5001373;28;20472;-71
2021/12/10 04:24:49;;;;;;;6.00;2.10;;;;;;;-1.00;97.72;94557.41;5004350;28;20325;-70
2021/12/10 04:27:15;;;;;;;3.75;1.95;;;;;;;-1.04;97.95;94555.44;5002175;28;20034;-71
2021/12/10 04:29:41;;;;;;;2.42;1.30;;;;;;;-1.08;97.54;94552.47;5009367;28;20054;-71
2021/12/10 04:32:10;;;;;;;9.73;2.15;;;;;;;-1.06;97.75;94547.00;5007226;28;20069;-72
2021/12/10 04:34:36;;;;;;;5.15;2.20;;;;;;;-1.04;97.61;94540.47;5008192;28;20483;-71
2021/12/10 04:37:04;;;;;;;6.78;3.05;;;;;;;-0.97;97.31;94538.56;5006942;28;20656;-74
2021/12/10 04:39:30;;;;;;;6.43;3.38;;;;;;;-0.96;97.33;94547.25;5007489;28;20026;-71
2021/12/10 04:41:56;;;;;;;6.28;2.53;;;;;;;-0.99;97.82;94524.88;5008446;28;20038;-73
2021/12/10 04:44:24;;;;;;;12.93;3.78;;;;;;;-0.89;97.96;94530.38;5009050;28;20088;-71
2021/12/10 04:46:50;;;;;;;8.15;3.05;;;;;;;-0.89;97.41;94512.00;5007957;28;20033;-71
2021/12/10 04:49:17;;;;;;;7.03;2.65;;;;;;;-0.81;97.94;94524.00;5005403;28;20087;-71
2021/12/10 04:51:51;;;;;;;11.57;3.67;;;;;;;-0.77;97.42;94519.91;5007272;28;20048;-70
2021/12/10 04:54:18;;;;;;;11.18;3.30;;;;;;;-0.78;97.74;94506.97;5003303;28;20481;-71
2021/12/10 04:56:45;;;;;;;6.22;2.25;;;;;;;-0.78;97.19;94509.59;5007515;28;20030;-72
2021/12/10 04:59:16;;;;;;;5.00;2.15;;;;;;;-0.82;97.86;94505.84;5005132;28;20049;-71
2021/12/10 05:01:42;;;;;;;7.67;2.30;;;;;;;-0.80;97.51;94507.22;5006993;28;20041;-71
2021/12/10 05:04:08;;;;;;;12.00;2.42;;;;;;;-0.81;97.69;94496.94;5007741;28;20042;-73
2021/12/10 05:06:35;;;;;;;7.47;2.30;;;;;;;-0.78;97.31;94499.09;5006891;28;20032;-71
2021/12/10 05:09:04;;;;;;;14.00;3.72;;;;;;;-0.79;97.83;94489.63;5007490;28;20060;-71
2021/12/10 05:11:29;;;;;;;3.70;1.85;;;;;;;-0.78;98.38;94486.78;5008119;28;20045;-71
2021/12/10 05:13:55;;;;;;;7.65;2.67;;;;;;;-0.76;97.20;94491.81;5005463;28;20517;-71
2021/12/10 05:16:25;;;;;;;6.03;2.22;;;;;;;-0.77;97.37;94479.72;5006166;28;20041;-71
2021/12/10 05:18:57;;;;;;;5.50;1.90;;;;;;;-0.75;97.76;94480.28;5007034;28;20050;-72
2021/12/10 05:21:25;;;;;;;5.05;1.67;;;;;;;-0.83;97.92;94475.34;5008154;28;20038;-71
2021/12/10 05:23:51;;;;;;;9.15;2.95;;;;;;;-0.78;97.08;94476.25;5007261;28;20485;-71
2021/12/10 05:26:17;;;;;;;7.20;2.15;;;;;;;-0.86;97.70;94469.53;5005751;28;20074;-71
2021/12/10 05:28:43;;;;;;;8.85;2.10;;;;;;;-0.86;97.80;94463.47;5006362;28;20069;-72
2021/12/10 05:31:08;;;;;;;4.63;1.88;;;;;;;-0.85;97.38;94451.97;5006082;28;20054;-73
2021/12/10 05:33:34;;;;;;;5.03;1.40;;;;;;;-0.98;97.04;94452.16;5006719;28;20069;-73
2021/12/10 05:36:01;;;;;;;4.25;1.95;;;;;;;-1.12;97.57;94448.91;5005590;28;20072;-71
2021/12/10 05:38:28;;;;;;;6.85;1.85;;;;;;;-1.18;97.69;94445.34;5006091;28;20461;-71
2021/12/10 05:40:56;;;;;;;9.60;2.50;;;;;;;-1.19;97.38;94442.97;5006743;28;20116;-72
2021/12/10 05:43:22;;;;;;;4.97;2.13;;;;;;;-1.18;97.72;94431.44;5005334;28;20042;-71
2021/12/10 05:45:48;;;;;;;9.13;2.80;;;;;;;-1.26;97.75;94429.13;5007273;28;20088;-71
2021/12/10 05:48:14;;;;;;;15.02;3.67;;;;;;;-1.23;97.48;94423.44;5004242;28;20041;-72
2021/12/10 05:50:40;;;;;;;4.50;2.45;;;;;;;-1.18;97.79;94423.56;5006386;28;20091;-71
2021/12/10 05:53:06;;;;;;;8.60;2.40;;;;;;;-1.09;96.57;94418.78;5006448;28;20026;-72
2021/12/10 05:55:32;;;;;;;10.60;1.92;;;;;;;-1.00;96.79;94409.56;5007827;28;20045;-73
2021/12/10 05:57:58;;;;;;;6.93;2.60;;;;;;;-0.91;96.36;94403.75;5005666;28;20080;-71
2021/12/10 06:00:30;;;;;;;9.30;2.38;;;;;;;-0.88;96.05;94395.41;5006872;28;20152;-72
2021/12/10 06:02:57;;;;;;;7.97;2.15;;;;;;;-0.88;95.87;94384.91;5006125;28;20044;-72
2021/12/10 06:05:23;;;;;;;8.57;2.10;;;;;;;-0.81;95.95;94381.38;5007428;28;20064;-73
2021/12/10 06:07:50;;;;;;;10.27;1.58;;;;;;;-0.82;96.01;94379.78;5007847;28;20038;-71
2021/12/10 06:10:18;;;;;;;14.70;3.10;;;;;;;-0.78;95.95;94376.47;5009172;28;20040;-72
2021/12/10 06:12:45;;;;;;;11.15;2.53;;;;;;;-0.77;95.59;94374.66;5007346;28;20507;-73
2021/12/10 06:15:13;;;;;;;7.55;2.65;;;;;;;-0.78;95.72;94371.22;5006598;28;20042;-72
2021/12/10 06:17:38;;;;;;;5.20;2.08;;;;;;;-0.76;95.91;94369.16;5007223;28;20052;-72
2021/12/10 06:20:08;;;;;;;8.10;1.92;;;;;;;-0.76;95.75;94356.03;5007059;28;20038;-72
2021/12/10 06:22:33;;;;;;;10.38;3.00;;;;;;;-0.69;96.05;94354.09;5005337;28;20084;-74
2021/12/10 06:24:59;;;;;;;11.50;2.53;;;;;;;-0.69;96.04;94348.84;5004944;28;20080;-71
2021/12/10 06:27:24;;;;;;;6.38;2.30;;;;;;;-0.76;95.76;94337.66;5005828;28;20049;-72
2021/12/10 06:29:50;;;;;;;3.55;1.38;;;;;;;-0.72;96.03;94343.25;5005919;28;20092;-73
2021/12/10 06:32:16;;;;;;;7.53;1.30;;;;;;;-0.69;95.59;94335.72;5005226;28;20038;-72
2021/12/10 06:34:41;;;;;;;4.03;1.45;;;;;;;-0.79;95.92;94338.09;5006418;28;20053;-72
2021/12/10 06:37:07;;;;;;;10.73;2.78;;;;;;;-0.78;95.63;94338.91;5005109;28;20052;-72
2021/12/10 06:39:33;;;;;;;7.80;2.03;;;;;;;-0.77;95.74;94336.06;5004727;28;20493;-71
2021/12/10 06:41:59;;;;;;;11.00;2.47;;;;;;;-0.80;95.44;94330.44;5002364;28;20461;-72
2021/12/10 06:44:25;;;;;;;4.88;1.90;;;;;;;-0.84;95.72;94340.63;5005837;28;20033;-72
2021/12/10 06:46:51;;;;;;;4.22;1.52;;;;;;;-0.91;94.89;94326.81;5005834;28;20384;-73
2021/12/10 06:49:18;;;;;;;11.70;2.03;;;;;;;-0.92;95.57;94318.13;5006425;28;20038;-73
2021/12/10 06:51:44;;;;;;;3.85;1.98;;;;;;;-0.91;95.27;94326.81;5004205;28;20029;-73
2021/12/10 06:54:10;;;;;;;2.70;1.20;;;;;;;-0.93;96.24;94323.63;4988004;28;20038;-72
2021/12/10 06:56:37;;;;;;;5.78;1.48;;;;;;;-0.94;95.77;94322.78;5004771;28;20045;-74
2021/12/10 06:59:05;;;;;;;3.67;1.50;;;;;;;-0.87;95.77;94318.22;5003358;28;20029;-72
2021/12/10 07:01:35;;;;;;;8.55;2.03;;;;;;;-0.87;96.62;94310.34;5005258;28;20096;-72
2021/12/10 07:04:04;;;;;;;5.20;2.53;;;;;;;-0.83;95.92;94317.78;5005439;28;20048;-72
2021/12/10 07:06:31;;;;;;;3.53;1.65;;;;;;;-0.89;95.47;94311.63;5006168;28;20045;-71
2021/12/10 07:09:01;;;;;;;13.95;2.20;;;;;;;-0.87;95.35;94315.59;5005624;28;20376;-72
2021/12/10 07:11:27;;;;;;;6.13;2.13;;;;;;;-0.92;95.44;94314.72;5005036;28;20109;-72
2021/12/10 07:13:56;;;;;;;3.72;1.40;;;;;;;-0.90;95.58;94320.53;5005517;28;20038;-72
2021/12/10 07:16:24;;;;;;;2.67;1.20;;;;;;;-0.89;95.79;94311.63;4988451;28;20412;-72
2021/12/10 07:18:51;;;;;;;12.10;2.03;;;;;;;-0.97;96.06;94319.84;5004131;28;20611;-71
2021/12/10 07:21:17;;;;;;;6.85;2.05;;;;;;;-1.09;95.80;94319.03;5004675;28;20053;-72
2021/12/10 07:23:43;;;;;;;6.60;2.42;;;;;;;-1.14;95.29;94320.53;5004877;28;20033;-72
2021/12/10 07:26:11;;;;;;;9.93;2.60;;;;;;;-1.15;94.48;94318.94;5003186;28;20100;-72
2021/12/10 07:28:36;;;;;;;7.35;2.85;;;;;;;-1.13;95.54;94316.06;5004765;28;20512;-71
2021/12/10 07:31:04;;;;;;;9.38;2.30;;;;;;;-1.16;94.55;94306.84;5003723;28;20049;-71
2021/12/10 07:33:30;;;;;;;9.23;3.30;;;;;;;-1.17;94.07;94312.28;5004729;28;20042;-72
2021/12/10 07:35:56;;;;;;;10.95;3.10;;;;;;;-1.17;94.20;94305.25;5003266;28;20049;-71
2021/12/10 07:38:22;;;;;;;3.05;1.73;;;;;;;-1.19;93.47;94312.53;5003833;28;20034;-72
2021/12/10 07:40:49;;;;;;;8.38;3.67;;;;;;;-1.21;93.92;94298.84;5004147;28;20033;-72
2021/12/10 07:43:15;;;;;;;5.40;2.47;;;;;;;-1.22;94.36;94301.69;5005181;28;20129;-71
2021/12/10 07:45:46;;;;;;;8.63;3.38;;;;;;;-1.12;94.14;94300.09;5005411;28;20117;-72
2021/12/10 07:48:15;;;;;;;7.30;2.88;;;;;;;-1.14;93.70;94290.84;5002626;28;20068;-71
2021/12/10 07:50:53;;;;;;;11.07;2.95;;;;;;;-1.10;93.53;94302.47;5003895;28;20097;-72
2021/12/10 07:53:20;;;;;;;5.43;1.90;;;;;;;-1.14;93.32;94296.09;5003801;28;20037;-72
2021/12/10 07:55:47;;;;;;;13.50;3.80;;;;;;;-1.14;93.47;94296.91;5005008;28;20040;-71
2021/12/10 07:58:13;;;;;;;3.22;1.33;;;;;;;-1.09;93.88;94296.19;5003038;28;20053;-71
2021/12/10 08:00:41;;;;;;;4.00;1.83;;;;;;;-1.12;93.35;94296.66;5003468;28;20037;-72
2021/12/10 08:03:08;;;;;;;5.85;2.22;;;;;;;-1.13;93.07;94297.69;5003608;28;20072;-71
2021/12/10 08:05:33;;;;;;;17.75;2.47;;;;;;;-1.24;93.12;94293.25;5003860;28;20488;-72
2021/12/10 08:08:00;;;;;;;3.55;1.63;;;;;;;-1.25;93.82;94289.00;5003804;28;20041;-71
2021/12/10 08:10:27;;;;;;;10.57;2.70;;;;;;;-1.26;93.50;94287.41;5004439;28;20384;-72
2021/12/10 08:12:54;;;;;;;3.60;2.10;;;;;;;-1.20;93.76;94279.44;5004822;28;20030;-72
2021/12/10 08:15:19;;;;;;;5.82;1.95;;;;;;;-1.24;94.48;94288.81;5005200;28;20443;-72
2021/12/10 08:17:45;;;;;;;3.53;1.85;;;;;;;-1.20;94.04;94287.31;5004296;28;20034;-72
2021/12/10 08:20:18;;;;;;;4.90;2.55;;;;;;;-1.17;94.22;94278.16;5004153;28;20042;-72
2021/12/10 08:22:45;;;;;;;10.43;3.08;;;;;;;-1.22;94.08;94278.06;4986780;28;20140;-72
2021/12/10 08:25:10;;;;;;;7.50;3.20;;;;;;;-1.18;94.18;94276.56;5003392;28;20107;-72
2021/12/10 08:27:37;;;;;;;14.02;2.58;;;;;;;-1.24;93.65;94275.69;5005194;28;20033;-72
2021/12/10 08:30:06;;;;;;;10.07;2.95;;;;;;;-1.08;93.00;94263.69;5004119;28;20030;-72
2021/12/10 08:32:32;;;;;;;5.25;2.40;;;;;;;-1.19;93.04;94267.09;5003968;28;20034;-71
2021/12/10 08:34:59;;;;;;;10.18;2.63;;;;;;;-1.18;92.76;94263.44;5004440;28;20030;-75
2021/12/10 08:37:24;;;;;;;4.90;2.30;;;;;;;-1.22;93.30;94257.06;5005094;28;20088;-71
2021/12/10 08:39:50;;;;;;;5.45;2.25;;;;;;;-1.27;93.26;94257.75;5004630;28;20041;-71
2021/12/10 08:42:16;;;;;;;4.68;2.35;;;;;;;-1.15;92.56;94255.94;5002767;28;20046;-71
2021/12/10 08:44:43;;;;;;;11.63;2.38;;;;;;;-1.19;92.52;94238.25;5004618;28;20034;-71
2021/12/10 08:47:11;;;;;;;3.63;2.08;;;;;;;-1.22;92.76;94249.22;5002981;28;20476;-72
2021/12/10 08:49:36;;;;;;;5.18;2.38;;;;;;;-1.13;93.24;94263.56;5004246;28;20041;-73
2021/12/10 08:52:03;;;;;;;8.80;3.15;;;;;;;-0.99;92.17;94253.66;5003539;28;20049;-72
2021/12/10 08:54:30;;;;;;;7.88;2.47;;;;;;;-0.85;90.96;94253.16;5003500;28;20173;-71
2021/12/10 08:56:57;;;;;;;8.90;3.67;;;;;;;-0.65;90.37;94254.59;5003448;28;20469;-71
2021/12/10 08:59:24;;;;;;;6.88;2.85;;;;;;;-0.69;90.22;94261.38;5003316;28;20073;-73
2021/12/10 09:01:55;;;;;;;6.10;3.45;;;;;;;-0.72;91.27;94261.81;5004137;28;20469;-72
2021/12/10 09:04:21;;;;;;;5.03;2.60;;;;;;;-0.81;90.47;94261.38;5005668;28;20440;-73
2021/12/10 09:06:52;;;;;;;8.68;2.95;;;;;;;-0.83;91.27;94266.06;5003087;28;20029;-72
2021/12/10 09:09:19;;;;;;;5.35;1.85;;;;;;;-0.80;91.36;94267.44;5002373;28;20041;-73
2021/12/10 09:11:53;;;;;;;6.30;3.70;;;;;;;-0.72;91.03;94270.50;5004584;28;20041;-72
2021/12/10 09:14:23;;;;;;;8.80;3.08;;;;;;;-0.71;90.54;94269.47;5005108;28;20453;-72
2021/12/10 09:16:49;;;;;;;6.70;3.10;;;;;;;-0.72;90.09;94267.06;5006659;28;20100;-73
2021/12/10 09:19:16;;;;;;;6.85;1.67;;;;;;;-0.66;90.43;94259.06;5005941;28;20137;-72
2021/12/10 09:21:43;;;;;;;7.75;1.75;;;;;;;-0.54;90.58;94274.81;5009234;28;20045;-73
2021/12/10 09:24:11;;;;;;;9.45;2.60;;;;;;;-0.64;90.26;94264.88;5008118;28;20549;-73
2021/12/10 09:26:41;;;;;;;6.20;3.30;;;;;;;-0.54;89.66;94266.94;5008061;28;20057;-72
2021/12/10 09:29:09;;;;;;;5.53;2.05;;;;;;;-0.51;89.83;94261.19;5003943;28;20042;-72
2021/12/10 09:31:36;;;;;;;8.45;2.63;;;;;;;-0.49;89.36;94258.34;5006768;28;20042;-73
2021/12/10 09:34:03;;;;;;;5.80;2.53;;;;;;;-0.39;89.57;94258.53;5007570;28;20547;-72
2021/12/10 09:36:29;;;;;;;7.55;3.53;;;;;;;-0.43;88.85;94255.56;5005841;28;20044;-72
2021/12/10 09:38:55;;;;;;;6.07;2.20;;;;;;;-0.41;89.23;94248.25;5006221;28;20116;-72
2021/12/10 09:41:22;;;;;;;6.90;2.67;;;;;;;-0.42;88.81;94232.72;5008047;28;20026;-71
2021/12/10 09:43:48;;;;;;;7.18;3.22;;;;;;;-0.32;89.21;94244.22;5008237;28;20084;-72
2021/12/10 09:46:13;;;;;;;5.43;2.38;;;;;;;-0.43;88.24;94242.44;5007237;28;20042;-71
2021/12/10 09:48:42;;;;;;;8.27;3.35;;;;;;;-0.35;88.57;94236.00;5006274;28;20473;-72
2021/12/10 09:51:15;;;;;;;9.00;2.58;;;;;;;-0.23;87.69;94228.91;5006493;28;20384;-73
2021/12/10 09:53:45;;;;;;;8.88;2.05;;;;;;;-0.29;86.07;94228.00;5006573;28;20034;-72
2021/12/10 09:56:11;;;;;;;3.40;1.75;;;;;;;-0.25;85.17;94225.69;5006797;28;20053;-72
2021/12/10 09:58:38;;;;;;;3.13;1.63;;;;;;;-0.33;85.00;94228.69;5006513;28;20038;-72
2021/12/10 10:01:14;;;;;;;5.72;2.03;;;;;;;-0.26;85.20;94208.31;5005793;28;20486;-72
2021/12/10 10:03:42;;;;;;;4.22;1.73;;;;;;;-0.13;84.20;94223.00;5004869;28;20038;-74
2021/12/10 10:06:11;;;;;;;3.33;1.48;;;;;;;-0.03;84.04;94207.41;5006587;28;20481;-72
2021/12/10 10:08:37;;;;;;;4.15;1.23;;;;;;;0.12;83.23;94206.88;5006802;28;20040;-71
2021/12/10 10:11:12;;;;;;;4.43;1.83;;;;;;;0.31;82.36;94208.22;5005935;28;20037;-73
2021/12/10 10:13:42;;;;;;;8.23;2.33;;;;;;;0.53;82.49;94195.94;5004825;28;20041;-72
2021/12/10 10:16:10;;;;;;;10.82;3.35;;;;;;;0.81;81.49;94195.03;5005867;28;20053;-71
2021/12/10 10:18:37;;;;;;;5.18;1.70;;;;;;;0.61;80.66;94205.25;5007129;28;20469;-73
2021/12/10 10:21:14;;;;;;;6.60;2.15;;;;;;;0.69;81.05;94201.44;5007627;28;20049;-73
2021/12/10 10:23:42;;;;;;;5.80;1.40;;;;;;;0.41;81.83;94189.19;5007218;28;20264;-72
2021/12/10 10:26:12;;;;;;;4.35;1.27;;;;;;;0.21;81.47;94182.56;5005813;28;20053;-71
2021/12/10 10:28:38;;;;;;;3.60;1.25;;;;;;;0.25;81.85;94180.25;5005975;28;20029;-71
2021/12/10 10:31:10;;;;;;;5.25;2.20;;;;;;;0.41;81.68;94176.03;5004341;28;20053;-72
2021/12/10 10:33:37;;;;;;;3.13;1.27;;;;;;;0.38;81.21;94173.84;5005712;28;20030;-72
2021/12/10 10:36:08;;;;;;;3.45;1.30;;;;;;;0.38;80.44;94179.91;5004663;28;20519;-71
2021/12/10 10:38:34;;;;;;;7.10;2.00;;;;;;;0.27;82.10;94175.56;5006293;28;20167;-72
2021/12/10 10:41:08;;;;;;;3.78;1.83;;;;;;;0.34;82.24;94173.56;5004205;28;20025;-71
2021/12/10 10:43:36;;;;;;;6.60;1.83;;;;;;;0.46;82.22;94171.63;5004799;28;20049;-71
2021/12/10 10:46:02;;;;;;;6.72;1.85;;;;;;;0.70;81.90;94163.53;5003990;28;20077;-72
2021/12/10 10:48:28;;;;;;;5.43;1.58;;;;;;;0.73;80.69;94160.44;5005903;28;20062;-72
2021/12/10 10:51:04;;;;;;;9.68;2.58;;;;;;;0.69;81.06;94159.31;5005332;28;20030;-72
2021/12/10 10:53:38;;;;;;;5.00;1.30;;;;;;;0.90;80.36;94149.84;5004866;28;20377;-71
2021/12/10 10:56:08;;;;;;;6.22;1.77;;;;;;;0.93;79.49;94151.97;5005871;28;20148;-72
2021/12/10 10:58:39;;;;;;;4.65;1.60;;;;;;;1.10;78.35;94145.63;5004777;28;20063;-72
2021/12/10 11:01:15;;;;;;;7.30;1.27;;;;;;;1.44;77.28;94155.22;5003468;28;20108;-73
2021/12/10 11:03:51;;;;;;;11.77;2.53;;;;;;;1.70;76.79;94140.47;5004781;28;20091;-74
2021/12/10 11:06:43;;;;;;;10.30;2.00;;;;;;;1.58;75.82;94143.25;5004292;28;20045;-73
2021/12/10 11:09:13;;;;;;;;;;;;;;;1.69;75.21;94137.03;4995933;28;20046;-71
2021/12/10 11:11:47;;;;;;;7.53;1.60;;;;;;;2.19;73.16;94141.19;5006517;28;19917;-73
2021/12/10 11:14:24;;;;;;;3.65;1.50;;;;;;;2.24;71.39;94139.34;4986778;28;20042;-72
2021/12/10 11:16:55;;;;;;;6.28;1.67;;;;;;;2.48;70.17;94129.22;5005583;28;20369;-72
2021/12/10 11:19:27;;;;;;;11.43;1.90;;;;;;;3.36;68.08;94133.91;5003875;28;20365;-71
2021/12/10 11:21:57;;;;;;;7.80;2.00;;;;;;;4.81;64.12;94127.34;5003099;28;20038;-73
2021/12/10 11:24:30;;;;;;;7.18;1.73;;;;;;;4.33;63.06;94136.69;5005081;28;20473;-72
2021/12/10 11:27:04;;;;;;;9.05;2.42;;;;;;;5.02;61.50;94120.94;5003513;28;20500;-74
2021/12/10 11:29:51;;;;;;;3.05;0.98;;;;;;;3.42;65.75;94137.34;5005293;28;20042;-72
2021/12/10 11:32:45;;;;;;;6.05;1.58;;;;;;;3.01;68.39;94139.81;5004158;28;20056;-72
2021/12/10 11:35:16;;;;;;;4.97;1.60;;;;;;;2.63;70.27;94141.72;5004975;28;20081;-72
2021/12/10 11:37:54;;;;;;;3.78;1.23;;;;;;;2.28;71.04;94152.84;5004747;28;20041;-72
2021/12/10 11:40:41;;;;;;;4.22;1.25;;;;;;;1.91;71.92;94142.25;5005675;28;20108;-72
2021/12/10 11:48:40;;;;;;;4.70;1.38;;;;;;;1.65;73.47;94133.31;5002273;28;20100;-72
2021/12/10 11:51:09;;;;;;;;;;;;;;;1.73;73.65;94132.88;5005577;28;20265;-71
2021/12/10 11:53:59;;;;;;;9.63;2.05;;;;;;;1.99;72.68;94130.44;5003097;28;19909;-72
2021/12/10 11:56:42;;;;;;;8.40;2.10;;;;;;;1.76;73.45;94142.09;5003635;28;20103;-71
2021/12/10 11:59:16;;;;;;;7.22;1.52;;;;;;;1.55;73.31;94149.00;5004188;28;20034;-72
2021/12/10 12:02:06;;;;;;;6.05;1.25;;;;;;;1.22;73.30;94150.75;5004005;28;20048;-72